Аэропорт: Нахичевань. Нахичевань

ICAO: UBBN

METAR:
2022-06-26 12:00:00
UBBN 261200Z 26012KT 9999 VCTS SCT036CB BKN083 26/08 Q1004 NOSIG RMK MT OP QFE680
METAR:
2022-06-26 11:01:00
TAF UBBN 261101Z 2612/2712 32014KT 9999 FEW050CB BKN100 TX29/2612Z TN19/2703Z TEMPO 2612/2618 27020G30KT -TSRA BKN030CB OVC090 TEMPO 2618/2624 08010KT